createdAt,value
2018-12-03T00:02:53.336Z,142.77
2018-12-03T00:05:51.563Z,147.05
2018-12-03T00:08:49.664Z,145.60
2018-12-03T00:11:46.496Z,139.60
2018-12-03T00:14:42.979Z,156.85
2018-12-03T00:17:39.236Z,151.60
2018-12-03T00:20:35.354Z,138.97
2018-12-03T00:23:31.286Z,150.55
2018-12-03T00:26:28.961Z,145.25
2018-12-03T00:29:25.692Z,145.30
2018-12-03T00:32:22.204Z,150.95
2018-12-03T00:35:18.843Z,154.55
2018-12-03T00:38:15.389Z,162.32
2018-12-03T00:41:11.544Z,149.35
2018-12-03T00:44:14.270Z,156.10
2018-12-03T00:47:10.306Z,147.10
2018-12-03T00:50:06.214Z,147.93
2018-12-03T00:53:02.709Z,150.45
2018-12-03T00:56:03.434Z,150.70
2018-12-03T00:58:59.628Z,147.87
2018-12-03T01:01:56.650Z,155.00
2018-12-03T01:04:53.218Z,153.27
2018-12-03T01:07:49.274Z,155.07
2018-12-03T01:10:45.449Z,146.72
2018-12-03T01:13:42.441Z,153.02
2018-12-03T01:16:38.933Z,152.25
2018-12-03T01:19:35.205Z,156.72
2018-12-03T01:22:31.205Z,144.95
2018-12-03T01:25:27.263Z,154.70
2018-12-03T01:28:23.290Z,156.80
2018-12-03T01:31:19.304Z,159.20
2018-12-03T01:34:19.133Z,156.80
2018-12-03T01:37:15.718Z,166.22
2018-12-03T01:40:13.939Z,161.52
2018-12-03T01:43:10.505Z,167.75
2018-12-03T01:46:06.531Z,168.25
2018-12-03T01:49:02.855Z,160.07
2018-12-03T01:51:59.459Z,167.30
2018-12-03T01:54:55.494Z,163.82
2018-12-03T01:57:51.898Z,163.28
2018-12-03T02:00:48.359Z,160.25
2018-12-03T02:03:44.560Z,152.82
2018-12-03T02:06:40.887Z,168.65
2018-12-03T02:09:36.866Z,147.90
2018-12-03T02:12:32.886Z,152.82
2018-12-03T02:15:29.577Z,151.87
2018-12-03T02:18:25.288Z,153.90
2018-12-03T02:21:21.383Z,152.30
2018-12-03T02:24:19.957Z,145.50
2018-12-03T02:27:16.134Z,149.20
2018-12-03T02:30:18.167Z,152.97
2018-12-03T02:33:14.604Z,147.87
2018-12-03T02:36:10.934Z,150.38
2018-12-03T02:39:08.886Z,143.13
2018-12-03T02:42:06.722Z,150.18
2018-12-03T02:45:04.558Z,149.95
2018-12-03T02:48:00.874Z,145.15
2018-12-03T02:50:56.799Z,146.57
2018-12-03T02:53:53.685Z,145.53
2018-12-03T02:56:49.887Z,132.00
2018-12-03T02:59:46.214Z,141.55
2018-12-03T03:02:45.642Z,141.47
2018-12-03T03:05:42.228Z,136.77
2018-12-03T03:08:38.306Z,146.70
2018-12-03T03:11:34.629Z,139.97
2018-12-03T03:14:30.960Z,141.30
2018-12-03T03:17:27.295Z,142.47
2018-12-03T03:20:25.153Z,139.62
2018-12-03T03:23:21.177Z,141.92
2018-12-03T03:26:17.845Z,134.90
2018-12-03T03:29:13.838Z,131.30
2018-12-03T03:32:10.787Z,130.75
2018-12-03T03:35:07.278Z,138.22
2018-12-03T03:38:04.073Z,130.72
2018-12-03T03:41:01.097Z,128.87
2018-12-03T03:43:59.550Z,143.52
2018-12-03T03:46:59.064Z,153.68
2018-12-03T03:49:55.383Z,140.73
2018-12-03T03:52:54.564Z,144.97
2018-12-03T03:56:04.404Z,150.42
2018-12-03T03:59:03.407Z,137.45
2018-12-03T04:02:01.163Z,149.18
2018-12-03T04:04:57.199Z,135.90
2018-12-03T04:07:53.710Z,138.15
2018-12-03T04:10:49.540Z,147.35
2018-12-03T04:13:45.922Z,145.50
2018-12-03T04:16:41.951Z,146.25
2018-12-03T04:19:38.001Z,133.05
2018-12-03T04:22:34.605Z,223.35
2018-12-03T04:25:30.952Z,166.73
2018-12-03T04:28:28.791Z,162.07
2018-12-03T04:31:25.561Z,176.70
2018-12-03T04:34:21.791Z,181.70
2018-12-03T04:37:20.759Z,178.35
2018-12-03T04:40:18.543Z,171.93
2018-12-03T04:43:18.089Z,160.88
2018-12-03T04:46:14.732Z,153.90
2018-12-03T04:49:12.801Z,156.90
2018-12-03T04:52:13.451Z,144.07
2018-12-03T04:55:12.277Z,147.93
2018-12-03T04:58:08.793Z,150.42
2018-12-03T05:01:07.711Z,143.85
2018-12-03T05:04:04.519Z,139.40
2018-12-03T05:07:01.446Z,133.87
2018-12-03T05:09:58.069Z,136.77
2018-12-03T05:12:58.491Z,131.40
2018-12-03T05:16:00.004Z,128.95
2018-12-03T05:18:57.285Z,132.27
2018-12-03T05:21:59.055Z,135.10
2018-12-03T05:24:55.641Z,130.90
2018-12-03T05:27:55.989Z,128.80
2018-12-03T05:30:55.027Z,122.45
2018-12-03T05:33:53.835Z,130.52
2018-12-03T05:36:50.952Z,123.78
2018-12-03T05:39:48.903Z,116.85
2018-12-03T05:42:47.024Z,119.85
2018-12-03T05:45:48.769Z,119.13
2018-12-03T05:48:45.497Z,119.82
2018-12-03T05:51:41.488Z,124.12
2018-12-03T05:54:37.910Z,126.53
2018-12-03T05:57:35.208Z,119.05
2018-12-03T06:00:33.740Z,126.82
2018-12-03T06:03:31.189Z,117.95
2018-12-03T06:06:27.419Z,111.50
2018-12-03T06:09:23.894Z,110.68
2018-12-03T06:12:20.861Z,111.68
2018-12-03T06:15:17.947Z,121.70
2018-12-03T06:18:14.545Z,114.10
2018-12-03T06:21:20.379Z,112.75
2018-12-03T06:24:17.619Z,115.52
2018-12-03T06:27:14.698Z,112.57
2018-12-03T06:30:19.803Z,111.50
2018-12-03T06:33:23.439Z,104.72
2018-12-03T06:36:20.592Z,110.32
2018-12-03T06:39:22.218Z,105.43
2018-12-03T06:42:20.007Z,113.55
2018-12-03T06:45:25.021Z,112.00
2018-12-03T06:48:26.729Z,103.20
2018-12-03T06:51:27.417Z,109.22
2018-12-03T06:54:28.253Z,95.22
2018-12-03T06:57:26.434Z,102.17
2018-12-03T07:00:34.306Z,105.27
2018-12-03T07:03:34.789Z,106.83
2018-12-03T07:06:32.543Z,109.50
2018-12-03T07:09:30.777Z,106.47
2018-12-03T07:12:28.774Z,104.07
2018-12-03T07:15:30.985Z,114.55
2018-12-03T07:18:33.855Z,102.10
2018-12-03T07:21:32.766Z,99.58
2018-12-03T07:24:33.322Z,109.07
2018-12-03T07:27:33.489Z,101.47
2018-12-03T07:30:31.355Z,104.50
2018-12-03T07:33:29.996Z,102.90
2018-12-03T07:36:27.968Z,101.78
2018-12-03T07:39:33.160Z,103.53
2018-12-03T07:42:32.783Z,97.42
2018-12-03T07:45:31.090Z,100.30
2018-12-03T07:48:29.745Z,96.12
2018-12-03T07:51:28.883Z,96.97
2018-12-03T07:54:28.143Z,98.90
2018-12-03T07:57:29.281Z,100.02
2018-12-03T08:00:31.429Z,97.15
2018-12-03T08:03:31.624Z,102.92
2018-12-03T08:06:29.178Z,97.50
2018-12-03T08:09:27.945Z,98.60
2018-12-03T08:12:25.951Z,99.67
2018-12-03T08:15:24.049Z,97.08
2018-12-03T08:18:23.897Z,96.85
2018-12-03T08:21:25.981Z,94.50
2018-12-03T08:24:28.631Z,105.32
2018-12-03T08:27:28.266Z,96.53
2018-12-03T08:30:27.712Z,93.47
2018-12-03T08:33:27.914Z,98.15
2018-12-03T08:36:26.348Z,97.78
2018-12-03T08:39:23.703Z,90.00
2018-12-03T08:42:21.354Z,97.27
2018-12-03T08:45:20.031Z,100.97
2018-12-03T08:48:18.537Z,94.52
2018-12-03T08:51:17.233Z,104.23
2018-12-03T08:54:15.568Z,92.75
2018-12-03T08:57:14.412Z,93.80
2018-12-03T09:00:17.024Z,92.22
2018-12-03T09:03:33.541Z,98.58
2018-12-03T09:06:33.085Z,93.58
2018-12-03T09:09:35.319Z,95.22
2018-12-03T09:12:31.337Z,101.58
2018-12-03T09:15:36.282Z,105.40
2018-12-03T09:18:39.334Z,92.35
2018-12-03T09:21:36.473Z,92.10
2018-12-03T09:24:40.678Z,90.40
2018-12-03T09:27:41.370Z,91.53
2018-12-03T09:30:42.032Z,90.72
2018-12-03T09:33:45.249Z,96.80
2018-12-03T09:36:45.547Z,87.55
2018-12-03T09:39:50.928Z,107.45
2018-12-03T09:43:01.199Z,116.85
2018-12-03T09:46:10.039Z,98.72
2018-12-03T09:49:14.830Z,95.85
2018-12-03T09:52:16.711Z,89.07
2018-12-03T09:55:18.943Z,92.78
2018-12-03T09:58:31.251Z,98.22
2018-12-03T10:01:33.020Z,84.25
2018-12-03T10:04:37.215Z,75.00
2018-12-03T10:07:37.323Z,81.55
2018-12-03T10:10:39.892Z,86.80
2018-12-03T10:13:39.726Z,87.20
2018-12-03T10:16:40.996Z,86.12
2018-12-03T10:19:39.090Z,86.40
2018-12-03T10:22:38.004Z,80.12
2018-12-03T10:25:36.614Z,78.25
2018-12-03T10:28:37.619Z,81.53
2018-12-03T10:31:36.179Z,79.03
2018-12-03T10:34:37.882Z,83.67
2018-12-03T10:37:39.911Z,93.33
2018-12-03T10:40:39.270Z,87.22
2018-12-03T10:43:39.997Z,85.90
2018-12-03T10:46:39.511Z,86.08
2018-12-03T10:49:40.098Z,88.75
2018-12-03T10:52:40.487Z,89.50
2018-12-03T10:55:42.485Z,85.12
2018-12-03T10:58:46.600Z,89.10
2018-12-03T11:02:16.198Z,81.37
2018-12-03T11:05:30.462Z,85.22
2018-12-03T11:08:30.702Z,82.12
2018-12-03T11:11:27.716Z,92.00
2018-12-03T11:14:26.398Z,87.65
2018-12-03T11:17:25.832Z,97.08
2018-12-03T11:20:24.698Z,85.83
2018-12-03T11:23:34.353Z,90.00
2018-12-03T11:26:30.308Z,82.70
2018-12-03T11:29:29.632Z,89.13
2018-12-03T11:32:33.087Z,87.42
2018-12-03T11:35:35.567Z,92.10
2018-12-03T11:39:28.591Z,86.60
2018-12-03T11:42:26.808Z,85.30
2018-12-03T11:45:25.031Z,81.25
2018-12-03T11:48:24.514Z,85.10
2018-12-03T11:51:21.116Z,89.40
2018-12-03T11:54:18.196Z,90.85
2018-12-03T11:57:17.734Z,85.45
2018-12-03T12:00:18.036Z,82.17
2018-12-03T12:03:14.137Z,75.90
2018-12-03T12:06:16.560Z,72.05
2018-12-03T12:09:21.006Z,96.37
2018-12-03T12:12:14.295Z,80.28
2018-12-03T12:15:15.152Z,81.65
2018-12-03T12:18:14.074Z,81.72
2018-12-03T12:21:12.785Z,83.35
2018-12-03T12:24:09.687Z,91.95
2018-12-03T12:27:05.939Z,91.60
2018-12-03T12:30:03.491Z,93.40
2018-12-03T12:32:59.703Z,93.62
2018-12-03T12:35:56.499Z,91.45
2018-12-03T12:38:52.243Z,89.45
2018-12-03T12:41:48.621Z,97.25
2018-12-03T12:44:44.720Z,94.32
2018-12-03T12:47:40.973Z,101.80
2018-12-03T12:50:37.559Z,90.72
2018-12-03T12:53:33.598Z,97.57
2018-12-03T12:56:29.153Z,109.22
2018-12-03T12:59:25.350Z,94.85
2018-12-03T13:02:22.196Z,115.05
2018-12-03T13:05:21.783Z,117.93
2018-12-03T13:08:18.320Z,138.32
2018-12-03T13:11:16.437Z,151.65
2018-12-03T13:14:20.049Z,152.90
2018-12-03T13:17:16.229Z,155.40
2018-12-03T13:20:19.652Z,177.60
2018-12-03T13:23:23.573Z,197.35
2018-12-03T13:26:23.899Z,191.18
2018-12-03T13:29:24.885Z,169.43
2018-12-03T13:32:21.617Z,168.15
2018-12-03T13:35:18.693Z,162.60
2018-12-03T13:38:14.431Z,155.93
2018-12-03T13:41:10.824Z,163.32
2018-12-03T13:44:07.091Z,162.68
2018-12-03T13:47:05.307Z,169.32
2018-12-03T13:50:01.373Z,161.82
2018-12-03T13:53:00.441Z,160.50
2018-12-03T13:55:54.879Z,160.67
2018-12-03T13:58:50.805Z,160.07
2018-12-03T14:01:47.934Z,159.95
2018-12-03T14:04:44.244Z,156.97
2018-12-03T14:07:46.544Z,151.30
2018-12-03T14:11:06.375Z,154.50
2018-12-03T14:14:31.084Z,151.37
2018-12-03T14:17:50.424Z,151.15
2018-12-03T14:20:49.293Z,154.18
2018-12-03T14:23:45.963Z,146.60
2018-12-03T14:26:41.614Z,151.07
2018-12-03T14:29:37.849Z,149.80
2018-12-03T14:32:36.381Z,152.20
2018-12-03T14:35:32.121Z,151.20
2018-12-03T14:38:28.721Z,155.67
2018-12-03T14:41:25.283Z,152.50
2018-12-03T14:44:21.952Z,148.32
2018-12-03T14:47:18.002Z,141.28
2018-12-03T14:50:15.567Z,144.17
2018-12-03T14:53:13.761Z,137.75
2018-12-03T14:56:10.339Z,135.55
2018-12-03T14:59:06.427Z,128.90
2018-12-03T15:02:03.724Z,135.90
2018-12-03T15:05:02.340Z,131.75
2018-12-03T15:07:58.899Z,131.30
2018-12-03T15:10:58.270Z,138.60
2018-12-03T15:13:54.353Z,138.75
2018-12-03T15:16:50.727Z,139.43
2018-12-03T15:19:47.604Z,133.25
2018-12-03T15:22:43.972Z,138.45
2018-12-03T15:25:41.089Z,145.62
2018-12-03T15:28:38.031Z,144.17
2018-12-03T15:31:37.157Z,141.10
2018-12-03T15:34:33.865Z,150.00
2018-12-03T15:37:30.663Z,141.47
2018-12-03T15:40:27.517Z,148.87
2018-12-03T15:43:24.044Z,154.35
2018-12-03T15:46:20.900Z,151.90
2018-12-03T15:49:17.901Z,143.65
2018-12-03T15:52:14.783Z,142.75
2018-12-03T15:55:12.160Z,142.35
2018-12-03T15:58:08.810Z,144.32
2018-12-03T16:01:05.112Z,143.00
2018-12-03T16:04:01.508Z,145.57
2018-12-03T16:06:57.977Z,134.20
2018-12-03T16:09:55.131Z,134.27
2018-12-03T16:12:52.572Z,143.02
2018-12-03T16:15:48.900Z,139.75
2018-12-03T16:18:47.628Z,138.72
2018-12-03T16:21:45.550Z,135.35
2018-12-03T16:24:42.329Z,126.42
2018-12-03T16:27:39.699Z,131.07
2018-12-03T16:30:38.083Z,127.90
2018-12-03T16:33:34.459Z,136.45
2018-12-03T16:36:31.948Z,126.62
2018-12-03T16:39:29.022Z,130.40
2018-12-03T16:42:25.453Z,133.25
2018-12-03T16:45:21.552Z,134.30
2018-12-03T16:48:18.484Z,129.53
2018-12-03T16:51:15.035Z,133.45
2018-12-03T16:54:11.355Z,120.30
2018-12-03T16:57:07.525Z,117.10
2018-12-03T17:00:05.845Z,121.30
2018-12-03T17:03:01.986Z,116.05
2018-12-03T17:05:59.009Z,123.92
2018-12-03T17:08:57.411Z,121.25
2018-12-03T17:11:54.377Z,117.93
2018-12-03T17:14:51.116Z,126.02
2018-12-03T17:17:47.885Z,126.45
2018-12-03T17:21:39.387Z,142.72
2018-12-03T17:24:39.014Z,134.40
2018-12-03T17:27:37.186Z,130.07
2018-12-03T17:30:33.533Z,122.45
2018-12-03T17:33:29.798Z,123.22
2018-12-03T17:36:26.294Z,124.78
2018-12-03T17:39:22.991Z,128.27
2018-12-03T17:42:26.562Z,127.55
2018-12-03T17:45:22.935Z,127.92
2018-12-03T17:48:19.003Z,132.63
2018-12-03T17:51:15.481Z,129.15
2018-12-03T17:54:11.935Z,131.90
2018-12-03T17:57:08.329Z,131.52
2018-12-03T18:00:04.595Z,143.55
2018-12-03T18:03:01.893Z,131.15
2018-12-03T18:05:58.038Z,134.45
2018-12-03T18:08:54.313Z,137.97
2018-12-03T18:11:50.631Z,138.20
2018-12-03T18:14:47.184Z,135.35
2018-12-03T18:17:43.182Z,134.07
2018-12-03T18:20:39.371Z,135.07
2018-12-03T18:23:35.584Z,137.68
2018-12-03T18:26:32.376Z,130.27
2018-12-03T18:29:28.691Z,134.47
2018-12-03T18:32:24.772Z,132.72
2018-12-03T18:35:20.913Z,137.22
2018-12-03T18:38:16.916Z,135.25
2018-12-03T18:41:12.998Z,127.40
2018-12-03T18:44:09.028Z,131.12
2018-12-03T18:47:05.792Z,129.40
2018-12-03T18:50:05.099Z,126.47
2018-12-03T18:53:01.472Z,119.93
2018-12-03T18:55:58.700Z,130.15
2018-12-03T18:59:04.541Z,124.90
2018-12-03T19:02:00.837Z,124.22
2018-12-03T19:04:57.234Z,124.20
2018-12-03T19:07:53.808Z,124.78
2018-12-03T19:10:49.971Z,119.22
2018-12-03T19:13:46.481Z,126.35
2018-12-03T19:16:42.761Z,118.28
2018-12-03T19:19:39.621Z,123.90
2018-12-03T19:22:35.831Z,139.25
2018-12-03T19:25:32.096Z,121.60
2018-12-03T19:28:28.570Z,121.85
2018-12-03T19:31:24.749Z,122.55
2018-12-03T19:34:22.137Z,115.30
2018-12-03T19:37:26.620Z,119.60
2018-12-03T19:40:22.705Z,117.62
2018-12-03T19:43:22.818Z,129.40
2018-12-03T19:46:19.678Z,116.73
2018-12-03T19:49:16.618Z,113.05
2018-12-03T19:52:13.271Z,119.37
2018-12-03T19:55:10.818Z,111.72
2018-12-03T19:58:18.985Z,108.25
2018-12-03T20:01:23.512Z,117.05
2018-12-03T20:04:45.040Z,111.85
2018-12-03T20:07:41.414Z,104.05
2018-12-03T20:10:37.562Z,109.40
2018-12-03T20:13:33.572Z,113.90
2018-12-03T20:16:29.927Z,104.67
2018-12-03T20:19:26.049Z,109.78
2018-12-03T20:22:21.976Z,102.27
2018-12-03T20:25:21.540Z,107.32
2018-12-03T20:28:21.865Z,110.40
2018-12-03T20:31:45.987Z,105.37
2018-12-03T20:38:15.921Z,102.07
2018-12-03T20:41:11.397Z,104.27
2018-12-03T20:44:02.795Z,100.12
2018-12-03T20:47:17.109Z,106.80
2018-12-03T20:50:19.503Z,102.53
2018-12-03T20:53:09.100Z,100.15
2018-12-03T20:55:57.500Z,106.27
2018-12-03T20:58:46.736Z,101.87
2018-12-03T21:01:35.215Z,98.07
2018-12-03T21:04:26.907Z,98.40
2018-12-03T21:07:14.454Z,96.40
2018-12-03T21:10:03.248Z,94.20
2018-12-03T21:12:51.577Z,100.72
2018-12-03T21:15:41.530Z,92.67
2018-12-03T21:18:29.289Z,95.03
2018-12-03T21:21:18.121Z,91.87
2018-12-03T21:24:06.178Z,98.27
2018-12-03T21:26:54.405Z,95.17
2018-12-03T21:29:43.337Z,95.97
2018-12-03T21:32:32.073Z,96.00
2018-12-03T21:35:20.373Z,94.28
2018-12-03T21:38:09.182Z,92.75
2018-12-03T21:40:57.482Z,92.97
2018-12-03T21:43:46.776Z,92.55
2018-12-03T21:46:34.822Z,100.10
2018-12-03T21:49:23.057Z,88.45
2018-12-03T21:52:11.812Z,92.25
2018-12-03T21:55:00.382Z,97.20
2018-12-03T21:57:49.107Z,89.62
2018-12-03T22:00:37.917Z,93.67
2018-12-03T22:03:26.667Z,88.90
2018-12-03T22:06:15.101Z,87.55
2018-12-03T22:09:04.069Z,92.72
2018-12-03T22:11:52.703Z,93.70
2018-12-03T22:14:40.806Z,96.10
2018-12-03T22:17:30.253Z,97.42
2018-12-03T22:20:18.873Z,99.62
2018-12-03T22:23:08.315Z,91.75
2018-12-03T22:25:56.781Z,91.42
2018-12-03T22:28:46.318Z,94.35
2018-12-03T22:31:34.645Z,92.33
2018-12-03T22:34:24.766Z,97.08
2018-12-03T22:37:13.451Z,98.45
2018-12-03T22:40:02.298Z,99.05
2018-12-03T22:42:53.266Z,93.82
2018-12-03T22:45:42.506Z,99.25
2018-12-03T22:48:31.644Z,95.97
2018-12-03T22:51:20.033Z,92.47
2018-12-03T22:54:08.349Z,98.27
2018-12-03T22:56:58.557Z,106.78
2018-12-03T22:59:46.460Z,103.67
2018-12-03T23:02:36.717Z,93.33
2018-12-03T23:05:25.891Z,103.12
2018-12-03T23:08:14.393Z,99.07
2018-12-03T23:11:03.849Z,98.75
2018-12-03T23:13:52.360Z,91.60
2018-12-03T23:16:40.619Z,91.80
2018-12-03T23:19:29.648Z,93.90
2018-12-03T23:22:17.298Z,95.30
2018-12-03T23:25:05.857Z,91.78
2018-12-03T23:27:54.395Z,98.52
2018-12-03T23:30:42.596Z,99.83
2018-12-03T23:33:31.546Z,101.90
2018-12-03T23:36:20.199Z,104.75
2018-12-03T23:39:10.831Z,106.40
2018-12-03T23:42:01.987Z,100.15
2018-12-03T23:44:51.000Z,101.53
2018-12-03T23:47:39.983Z,103.05
2018-12-03T23:50:29.291Z,106.50
2018-12-03T23:53:18.500Z,117.15
2018-12-03T23:56:07.144Z,112.22
2018-12-03T23:58:56.113Z,119.62
